createdAt,value
2017-08-05T00:00:32.903Z,100176
2017-08-05T00:01:32.000Z,100176
2017-08-05T00:02:31.979Z,100180
2017-08-05T00:03:33.841Z,100178
2017-08-05T00:04:33.136Z,100174
2017-08-05T00:05:32.246Z,100172
2017-08-05T00:06:32.337Z,100166
2017-08-05T00:07:32.335Z,100166
2017-08-05T00:08:33.949Z,100164
2017-08-05T00:09:33.983Z,100162
2017-08-05T00:10:32.353Z,100163
2017-08-05T00:11:34.141Z,100162
2017-08-05T00:12:32.431Z,100168
2017-08-05T00:13:33.470Z,100162
2017-08-05T00:14:32.586Z,100161
2017-08-05T00:15:32.589Z,100173
2017-08-05T00:16:34.272Z,100165
2017-08-05T00:17:34.481Z,100163
2017-08-05T00:18:33.778Z,100163
2017-08-05T00:19:33.821Z,100172
2017-08-05T00:20:34.547Z,100168
2017-08-05T00:21:32.786Z,100176
2017-08-05T00:22:32.903Z,100178
2017-08-05T00:23:32.810Z,100181
2017-08-05T00:24:32.833Z,100171
2017-08-05T00:25:34.683Z,100175
2017-08-05T00:26:34.780Z,100179
2017-08-05T00:27:33.182Z,100181
2017-08-05T00:28:34.128Z,100179
2017-08-05T00:29:34.892Z,100181
2017-08-05T00:30:33.280Z,100180
2017-08-05T00:31:35.047Z,100178
2017-08-05T00:32:33.523Z,100182
2017-08-05T00:33:34.564Z,100180
2017-08-05T00:34:34.513Z,100184
2017-08-05T00:35:33.708Z,100177
2017-08-05T00:36:34.592Z,100175
2017-08-05T00:37:35.351Z,100178
2017-08-05T00:38:34.698Z,100173
2017-08-05T00:39:34.776Z,100173
2017-08-05T00:40:33.884Z,100169
2017-08-05T00:41:35.571Z,100170
2017-08-05T00:42:33.944Z,100169
2017-08-05T00:43:33.956Z,100168
2017-08-05T00:44:35.054Z,100169
2017-08-05T00:45:34.972Z,100158
2017-08-05T00:46:34.192Z,100159
2017-08-05T00:47:34.097Z,100167
2017-08-05T00:48:35.108Z,100160
2017-08-05T00:49:34.140Z,100160
2017-08-05T00:50:34.342Z,100162
2017-08-05T00:51:35.323Z,100162
2017-08-05T00:52:35.302Z,100162
2017-08-05T00:53:34.484Z,100163
2017-08-05T00:54:34.410Z,100166
2017-08-05T00:55:35.373Z,100167
2017-08-05T00:56:34.577Z,100170
2017-08-05T00:57:34.562Z,100169
2017-08-05T00:58:36.331Z,100167
2017-08-05T00:59:34.720Z,100170
2017-08-05T01:00:35.156Z,100168
2017-08-05T01:01:36.536Z,100163
2017-08-05T01:02:36.639Z,100161
2017-08-05T01:03:36.086Z,100162
2017-08-05T01:04:35.103Z,100164
2017-08-05T01:05:36.052Z,100169
2017-08-05T01:06:35.597Z,100166
2017-08-05T01:07:36.987Z,100165
2017-08-05T01:08:36.329Z,100164
2017-08-05T01:09:36.354Z,100167
2017-08-05T01:10:37.007Z,100160
2017-08-05T01:11:35.418Z,100154
2017-08-05T01:12:37.522Z,100149
2017-08-05T01:13:37.304Z,100156
2017-08-05T01:14:37.261Z,100153
2017-08-05T01:15:37.431Z,100155
2017-08-05T01:16:37.395Z,100153
2017-08-05T01:17:35.928Z,100151
2017-08-05T01:18:37.532Z,100152
2017-08-05T01:19:37.661Z,100152
2017-08-05T01:20:37.048Z,100155
2017-08-05T01:21:36.060Z,100157
2017-08-05T01:22:36.236Z,100153
2017-08-05T01:23:38.013Z,100156
2017-08-05T01:24:37.276Z,100151
2017-08-05T01:25:38.009Z,100148
2017-08-05T01:26:38.077Z,100147
2017-08-05T01:27:37.464Z,100144
2017-08-05T01:28:38.242Z,100133
2017-08-05T01:29:38.288Z,100138
2017-08-05T01:30:37.716Z,100134
2017-08-05T01:31:37.794Z,100139
2017-08-05T01:32:36.784Z,100147
2017-08-05T01:33:38.596Z,100155
2017-08-05T01:34:37.855Z,100153
2017-08-05T01:35:37.087Z,100157
2017-08-05T01:36:38.076Z,100153
2017-08-05T01:37:38.090Z,100154
2017-08-05T01:38:38.061Z,100153
2017-08-05T01:39:38.971Z,100153
2017-08-05T01:40:37.289Z,100144
2017-08-05T01:41:37.366Z,100141
2017-08-05T01:42:37.448Z,100142
2017-08-05T01:43:38.304Z,100142
2017-08-05T01:44:37.426Z,100139
2017-08-05T01:45:39.190Z,100136
2017-08-05T01:46:39.371Z,100133
2017-08-05T01:47:38.414Z,100134
2017-08-05T01:48:38.676Z,100137
2017-08-05T01:49:37.784Z,100139
2017-08-05T01:50:37.912Z,100142
2017-08-05T01:51:38.800Z,100144
2017-08-05T01:52:37.909Z,100147
2017-08-05T01:53:39.754Z,100150
2017-08-05T01:54:39.831Z,100154
2017-08-05T01:55:39.086Z,100153
2017-08-05T01:56:39.250Z,100154
2017-08-05T01:57:38.244Z,100150
2017-08-05T01:58:39.932Z,100149
2017-08-05T01:59:39.255Z,100160
2017-08-05T02:00:38.451Z,100163
2017-08-05T02:01:40.039Z,100162
2017-08-05T02:02:38.542Z,100162
2017-08-05T02:03:38.457Z,100163
2017-08-05T02:04:38.611Z,100165
2017-08-05T02:05:39.502Z,100166
2017-08-05T02:06:38.596Z,100165
2017-08-05T02:07:38.763Z,100170
2017-08-05T02:08:40.480Z,100171
2017-08-05T02:09:38.879Z,100174
2017-08-05T02:10:40.558Z,100176
2017-08-05T02:11:38.933Z,100176
2017-08-05T02:12:39.970Z,100178
2017-08-05T02:13:38.987Z,100178
2017-08-05T02:14:39.047Z,100180
2017-08-05T02:15:39.116Z,100172
2017-08-05T02:16:39.175Z,100186
2017-08-05T02:17:39.224Z,100181
2017-08-05T02:18:39.302Z,100181
2017-08-05T02:19:40.310Z,100175
2017-08-05T02:20:39.228Z,100173
2017-08-05T02:21:40.978Z,100165
2017-08-05T02:22:40.457Z,100161
2017-08-05T02:23:40.345Z,100160
2017-08-05T02:24:39.500Z,100167
2017-08-05T02:25:39.421Z,100169
2017-08-05T02:26:41.187Z,100169
2017-08-05T02:27:39.592Z,100164
2017-08-05T02:28:39.776Z,100163
2017-08-05T02:29:39.675Z,100166
2017-08-05T02:30:41.447Z,100164
2017-08-05T02:31:39.791Z,100164
2017-08-05T02:32:40.797Z,100168
2017-08-05T02:33:41.013Z,100167
2017-08-05T02:34:40.101Z,100164
2017-08-05T02:35:41.827Z,100159
2017-08-05T02:36:41.052Z,100159
2017-08-05T02:37:41.178Z,100162
2017-08-05T02:38:40.226Z,100168
2017-08-05T02:39:41.207Z,100166
2017-08-05T02:40:41.246Z,100170
2017-08-05T02:41:40.495Z,100175
2017-08-05T02:42:40.505Z,100179
2017-08-05T02:43:42.164Z,100171
2017-08-05T02:44:42.258Z,100181
2017-08-05T02:45:41.553Z,100179
2017-08-05T02:46:40.737Z,100177
2017-08-05T02:47:40.724Z,100175
2017-08-05T02:48:40.870Z,100177
2017-08-05T02:49:40.984Z,100173
2017-08-05T02:50:41.853Z,100178
2017-08-05T02:51:42.574Z,100178
2017-08-05T02:52:42.060Z,100180
2017-08-05T02:53:41.060Z,100176
2017-08-05T02:54:41.191Z,100181
2017-08-05T02:55:42.216Z,100184
2017-08-05T02:56:41.220Z,100183
2017-08-05T02:57:42.298Z,100186
2017-08-05T02:58:41.371Z,100186
2017-08-05T02:59:41.382Z,100173
2017-08-05T03:00:41.317Z,100180
2017-08-05T03:01:42.411Z,100177
2017-08-05T03:02:43.201Z,100176
2017-08-05T03:03:43.156Z,100177
2017-08-05T03:04:41.503Z,100184
2017-08-05T03:05:43.341Z,100186
2017-08-05T03:06:43.418Z,100183
2017-08-05T03:07:43.557Z,100187
2017-08-05T03:08:42.808Z,100184
2017-08-05T03:09:43.550Z,100185
2017-08-05T03:10:43.708Z,100178
2017-08-05T03:11:42.067Z,100184
2017-08-05T03:12:43.839Z,100180
2017-08-05T03:13:43.768Z,100180
2017-08-05T03:14:43.909Z,100168
2017-08-05T03:15:43.221Z,100170
2017-08-05T03:16:43.875Z,100176
2017-08-05T03:17:42.269Z,100169
2017-08-05T03:18:42.293Z,100178
2017-08-05T03:19:42.393Z,100177
2017-08-05T03:20:43.975Z,100175
2017-08-05T03:21:43.337Z,100171
2017-08-05T03:22:43.550Z,100176
2017-08-05T03:23:42.596Z,100172
2017-08-05T03:24:44.284Z,100177
2017-08-05T03:25:43.584Z,100180
2017-08-05T03:26:43.657Z,100177
2017-08-05T03:27:42.725Z,100180
2017-08-05T03:28:43.760Z,100178
2017-08-05T03:29:42.721Z,100179
2017-08-05T03:30:44.745Z,100179
2017-08-05T03:31:44.502Z,100173
2017-08-05T03:32:42.918Z,100175
2017-08-05T03:33:43.012Z,100175
2017-08-05T03:34:44.651Z,100171
2017-08-05T03:35:43.066Z,100173
2017-08-05T03:36:43.447Z,100181
2017-08-05T03:37:44.905Z,100178
2017-08-05T03:38:43.262Z,100183
2017-08-05T03:39:44.986Z,100179
2017-08-05T03:40:43.280Z,100174
2017-08-05T03:41:43.338Z,100172
2017-08-05T03:42:44.599Z,100173
2017-08-05T03:43:45.239Z,100167
2017-08-05T03:44:45.241Z,100163
2017-08-05T03:45:44.576Z,100158
2017-08-05T03:46:45.356Z,100160
2017-08-05T03:47:43.840Z,100159
2017-08-05T03:48:44.069Z,100157
2017-08-05T03:49:45.547Z,100161
2017-08-05T03:50:44.031Z,100157
2017-08-05T03:51:44.063Z,100152
2017-08-05T03:52:43.979Z,100153
2017-08-05T03:53:44.044Z,100154
2017-08-05T03:54:44.465Z,100152
2017-08-05T03:55:45.245Z,100150
2017-08-05T03:56:44.291Z,100144
2017-08-05T03:57:45.247Z,100147
2017-08-05T03:58:45.290Z,100141
2017-08-05T03:59:44.399Z,100141
2017-08-05T04:00:44.883Z,100137
2017-08-05T04:01:45.640Z,100137
2017-08-05T04:02:46.379Z,100130
2017-08-05T04:03:45.631Z,100131
2017-08-05T04:04:44.797Z,100135
2017-08-05T04:05:45.858Z,100134
2017-08-05T04:06:46.208Z,100135
2017-08-05T04:07:45.902Z,100133
2017-08-05T04:08:45.022Z,100134
2017-08-05T04:09:46.114Z,100136
2017-08-05T04:10:46.192Z,100137
2017-08-05T04:11:45.224Z,100137
2017-08-05T04:12:45.638Z,100139
2017-08-05T04:13:47.082Z,100145
2017-08-05T04:14:46.449Z,100142
2017-08-05T04:15:47.262Z,100148
2017-08-05T04:16:45.538Z,100142
2017-08-05T04:17:47.431Z,100148
2017-08-05T04:18:47.678Z,100148
2017-08-05T04:19:45.861Z,100144
2017-08-05T04:20:47.507Z,100142
2017-08-05T04:21:45.893Z,100136
2017-08-05T04:22:46.973Z,100136
2017-08-05T04:23:45.969Z,100124
2017-08-05T04:24:46.429Z,100134
2017-08-05T04:25:46.100Z,100137
2017-08-05T04:26:46.208Z,100140
2017-08-05T04:27:47.308Z,100135
2017-08-05T04:28:46.342Z,100144
2017-08-05T04:29:46.412Z,100146
2017-08-05T04:30:46.735Z,100144
2017-08-05T04:31:46.405Z,100135
2017-08-05T04:32:46.586Z,100140
2017-08-05T04:33:48.180Z,100137
2017-08-05T04:34:48.329Z,100137
2017-08-05T04:35:46.649Z,100126
2017-08-05T04:36:47.010Z,100126
2017-08-05T04:37:48.462Z,100124
2017-08-05T04:38:47.928Z,100129
2017-08-05T04:39:48.598Z,100125
2017-08-05T04:40:47.098Z,100125
2017-08-05T04:41:46.999Z,100129
2017-08-05T04:42:47.355Z,100132
2017-08-05T04:43:48.027Z,100130
2017-08-05T04:44:47.181Z,100126
2017-08-05T04:45:48.069Z,100131
2017-08-05T04:46:48.835Z,100134
2017-08-05T04:47:48.885Z,100133
2017-08-05T04:48:47.594Z,100130
2017-08-05T04:49:47.455Z,100121
2017-08-05T04:50:48.439Z,100129
2017-08-05T04:51:47.399Z,100128
2017-08-05T04:52:47.498Z,100128
2017-08-05T04:53:48.541Z,100129
2017-08-05T04:54:47.812Z,100120
2017-08-05T04:55:47.686Z,100127
2017-08-05T04:56:48.733Z,100125
2017-08-05T04:57:49.546Z,100126
2017-08-05T04:58:48.784Z,100124
2017-08-05T04:59:47.828Z,100117
2017-08-05T05:00:48.245Z,100120
2017-08-05T05:01:48.060Z,100120
2017-08-05T05:02:49.705Z,100116
2017-08-05T05:03:48.075Z,100120
2017-08-05T05:04:48.174Z,100111
2017-08-05T05:05:49.206Z,100115
2017-08-05T05:06:49.550Z,100127
2017-08-05T05:07:48.429Z,100125
2017-08-05T05:08:48.457Z,100127
2017-08-05T05:09:49.402Z,100125
2017-08-05T05:10:49.416Z,100121
2017-08-05T05:11:49.443Z,100123
2017-08-05T05:12:48.934Z,100118
2017-08-05T05:13:48.560Z,100118
2017-08-05T05:14:48.647Z,100117
2017-08-05T05:15:49.817Z,100120
2017-08-05T05:16:48.852Z,100115
2017-08-05T05:17:49.732Z,100120
2017-08-05T05:18:49.182Z,100119
2017-08-05T05:19:49.948Z,100123
2017-08-05T05:20:49.867Z,100125
2017-08-05T05:21:49.914Z,100119
2017-08-05T05:22:50.816Z,100125
2017-08-05T05:23:49.100Z,100129
2017-08-05T05:24:50.521Z,100126
2017-08-05T05:25:49.212Z,100129
2017-08-05T05:26:49.331Z,100126
2017-08-05T05:27:51.101Z,100129
2017-08-05T05:28:49.524Z,100129
2017-08-05T05:29:51.224Z,100130
2017-08-05T05:30:51.585Z,100132
2017-08-05T05:31:49.568Z,100132
2017-08-05T05:32:51.421Z,100130
2017-08-05T05:33:51.342Z,100122
2017-08-05T05:34:51.496Z,100128
2017-08-05T05:35:49.818Z,100118
2017-08-05T05:36:50.049Z,100119
2017-08-05T05:37:49.953Z,100103
2017-08-05T05:38:51.653Z,100103
2017-08-05T05:39:49.970Z,100104
2017-08-05T05:40:51.779Z,100101
2017-08-05T05:41:50.153Z,100099
2017-08-05T05:42:51.351Z,100098
2017-08-05T05:43:50.126Z,100099
2017-08-05T05:44:50.193Z,100103
2017-08-05T05:45:51.236Z,100105
2017-08-05T05:46:50.424Z,100108
2017-08-05T05:47:51.319Z,100110
2017-08-05T05:48:50.857Z,100116
2017-08-05T05:49:50.597Z,100117
2017-08-05T05:50:52.346Z,100117
2017-08-05T05:51:50.731Z,100110
2017-08-05T05:52:51.631Z,100101
2017-08-05T05:53:50.843Z,100105
2017-08-05T05:54:52.771Z,100105
2017-08-05T05:55:50.840Z,100101
2017-08-05T05:56:51.966Z,100103
2017-08-05T05:57:52.594Z,100100
2017-08-05T05:58:51.097Z,100091
2017-08-05T05:59:51.192Z,100093
2017-08-05T06:00:51.493Z,100097
2017-08-05T06:01:51.198Z,100096
2017-08-05T06:02:52.242Z,100099
2017-08-05T06:03:51.322Z,100087
2017-08-05T06:04:51.430Z,100099
2017-08-05T06:05:51.525Z,100096
2017-08-05T06:06:53.393Z,100097
2017-08-05T06:07:51.557Z,100101
2017-08-05T06:08:51.628Z,100088
2017-08-05T06:09:53.243Z,100099
2017-08-05T06:10:53.388Z,100094
2017-08-05T06:11:53.378Z,100090
2017-08-05T06:12:53.068Z,100088
2017-08-05T06:13:51.785Z,100099
2017-08-05T06:14:53.469Z,100098
2017-08-05T06:15:51.826Z,100104
2017-08-05T06:16:51.939Z,100101
2017-08-05T06:17:51.965Z,100109
2017-08-05T06:18:52.218Z,100108
2017-08-05T06:19:53.714Z,100111
2017-08-05T06:20:52.949Z,100111
2017-08-05T06:21:52.171Z,100112
2017-08-05T06:22:52.254Z,100114
2017-08-05T06:23:53.922Z,100110
2017-08-05T06:24:52.574Z,100117
2017-08-05T06:25:52.290Z,100124
2017-08-05T06:26:52.308Z,100123
2017-08-05T06:27:52.332Z,100125
2017-08-05T06:28:52.329Z,100122
2017-08-05T06:29:53.417Z,100114
2017-08-05T06:30:53.697Z,100114
2017-08-05T06:31:52.393Z,100108
2017-08-05T06:32:54.093Z,100103
2017-08-05T06:33:52.422Z,100091
2017-08-05T06:34:52.490Z,100088
2017-08-05T06:35:53.663Z,100096
2017-08-05T06:36:54.741Z,100094
2017-08-05T06:37:54.434Z,100102
2017-08-05T06:38:53.755Z,100106
2017-08-05T06:39:52.973Z,100095
2017-08-05T06:40:54.639Z,100099
2017-08-05T06:41:54.790Z,100097
2017-08-05T06:42:53.443Z,100103
2017-08-05T06:43:54.900Z,100099
2017-08-05T06:44:54.255Z,100102
2017-08-05T06:45:54.209Z,100100
2017-08-05T06:46:55.062Z,100102
2017-08-05T06:47:54.433Z,100109
2017-08-05T06:48:53.761Z,100109
2017-08-05T06:49:54.532Z,100110
2017-08-05T06:50:53.537Z,100105
2017-08-05T06:51:53.637Z,100114
2017-08-05T06:52:53.542Z,100107
2017-08-05T06:53:53.733Z,100101
2017-08-05T06:54:55.781Z,100106
2017-08-05T06:55:53.881Z,100094
2017-08-05T06:56:55.642Z,100096
2017-08-05T06:57:54.890Z,100097
2017-08-05T06:58:54.063Z,100099
2017-08-05T06:59:55.842Z,100096
2017-08-05T07:00:56.008Z,100091
2017-08-05T07:01:55.894Z,100092
2017-08-05T07:02:55.817Z,100090
2017-08-05T07:03:54.161Z,100090
2017-08-05T07:04:54.241Z,100087
2017-08-05T07:05:56.117Z,100094
2017-08-05T07:06:54.594Z,100091
2017-08-05T07:07:56.095Z,100095
2017-08-05T07:08:54.551Z,100092
2017-08-05T07:09:54.550Z,100095
2017-08-05T07:10:55.543Z,100088
2017-08-05T07:11:56.367Z,100093
2017-08-05T07:12:54.959Z,100098
2017-08-05T07:13:54.780Z,100103
2017-08-05T07:14:54.693Z,100110
2017-08-05T07:15:56.571Z,100114
2017-08-05T07:16:54.889Z,100120
2017-08-05T07:17:56.652Z,100123
2017-08-05T07:18:55.419Z,100126
2017-08-05T07:19:55.180Z,100117
2017-08-05T07:20:56.871Z,100118
2017-08-05T07:21:55.203Z,100109
2017-08-05T07:22:55.209Z,100100
2017-08-05T07:23:55.127Z,100096
2017-08-05T07:24:57.128Z,100092
2017-08-05T07:25:56.981Z,100097
2017-08-05T07:26:56.937Z,100103
2017-08-05T07:27:55.384Z,100108
2017-08-05T07:28:57.149Z,100107
2017-08-05T07:29:57.122Z,100103
2017-08-05T07:30:55.592Z,100095
2017-08-05T07:31:56.645Z,100089
2017-08-05T07:32:56.723Z,100090
2017-08-05T07:33:55.681Z,100090
2017-08-05T07:34:56.768Z,100093
2017-08-05T07:35:57.408Z,100090
2017-08-05T07:36:56.125Z,100092
2017-08-05T07:37:55.862Z,100088
2017-08-05T07:38:57.697Z,100086
2017-08-05T07:39:55.970Z,100085
2017-08-05T07:40:57.755Z,100085
2017-08-05T07:41:57.697Z,100092
2017-08-05T07:42:56.461Z,100093
2017-08-05T07:43:56.234Z,100094
2017-08-05T07:44:57.222Z,100088
2017-08-05T07:45:57.230Z,100089
2017-08-05T07:46:57.871Z,100088
2017-08-05T07:47:58.043Z,100079
2017-08-05T07:48:58.444Z,100083
2017-08-05T07:49:58.217Z,100083
2017-08-05T07:50:57.423Z,100084
2017-08-05T07:51:56.525Z,100080
2017-08-05T07:52:56.716Z,100078
2017-08-05T07:53:58.401Z,100075
2017-08-05T07:54:57.055Z,100074
2017-08-05T07:55:57.951Z,100075
2017-08-05T07:56:57.857Z,100073
2017-08-05T07:57:58.023Z,100071
2017-08-05T07:58:58.835Z,100071
2017-08-05T07:59:58.819Z,100067
2017-08-05T08:00:57.245Z,100065
2017-08-05T08:01:57.265Z,100056
2017-08-05T08:02:57.368Z,100059
2017-08-05T08:03:57.414Z,100048
2017-08-05T08:04:57.526Z,100053
2017-08-05T08:05:57.477Z,100063
2017-08-05T08:06:58.538Z,100058
2017-08-05T08:07:57.616Z,100066
2017-08-05T08:08:59.426Z,100072
2017-08-05T08:09:57.831Z,100074
2017-08-05T08:10:57.867Z,100072
2017-08-05T08:11:57.803Z,100073
2017-08-05T08:12:57.895Z,100069
2017-08-05T08:13:57.985Z,100071
2017-08-05T08:14:59.702Z,100067
2017-08-05T08:15:59.769Z,100068
2017-08-05T08:16:58.105Z,100067
2017-08-05T08:17:58.162Z,100072
2017-08-05T08:18:58.165Z,100070
2017-08-05T08:19:58.175Z,100071
2017-08-05T08:20:58.250Z,100072
2017-08-05T08:21:58.397Z,100072
2017-08-05T08:22:59.288Z,100071
2017-08-05T08:23:58.483Z,100075
2017-08-05T08:24:59.460Z,100077
2017-08-05T08:25:59.553Z,100077
2017-08-05T08:26:59.656Z,100079
2017-08-05T08:27:59.664Z,100072
2017-08-05T08:28:59.728Z,100076
2017-08-05T08:29:58.733Z,100083
2017-08-05T08:30:58.875Z,100083
2017-08-05T08:31:58.913Z,100072
2017-08-05T08:32:58.959Z,100077
2017-08-05T08:33:59.584Z,100074
2017-08-05T08:35:01.425Z,100070
2017-08-05T08:35:59.092Z,100070
2017-08-05T08:37:01.240Z,100070
2017-08-05T08:38:00.114Z,100076
2017-08-05T08:38:59.142Z,100083
2017-08-05T08:39:59.212Z,100081
2017-08-05T08:40:59.215Z,100085
2017-08-05T08:41:59.246Z,100082
2017-08-05T08:43:00.213Z,100084
2017-08-05T08:43:59.339Z,100083
2017-08-05T08:45:00.321Z,100086
2017-08-05T08:45:59.522Z,100085
2017-08-05T08:47:01.186Z,100086
2017-08-05T08:47:59.611Z,100088
2017-08-05T08:49:00.697Z,100093
2017-08-05T08:49:59.802Z,100093
2017-08-05T08:50:59.811Z,100090
2017-08-05T08:51:59.904Z,100091
2017-08-05T08:53:01.546Z,100090
2017-08-05T08:54:00.044Z,100084
2017-08-05T08:55:01.619Z,100086
2017-08-05T08:56:01.817Z,100087
2017-08-05T08:57:00.024Z,100089
2017-08-05T08:58:00.215Z,100088
2017-08-05T08:59:01.147Z,100090
2017-08-05T09:00:01.342Z,100081
2017-08-05T09:01:01.251Z,100089
2017-08-05T09:02:00.357Z,100077
2017-08-05T09:03:00.454Z,100072
2017-08-05T09:04:00.529Z,100074
2017-08-05T09:05:01.513Z,100076
2017-08-05T09:06:01.648Z,100079
2017-08-05T09:07:00.640Z,100076
2017-08-05T09:08:00.728Z,100070
2017-08-05T09:09:01.763Z,100062
2017-08-05T09:10:02.664Z,100057
2017-08-05T09:11:02.578Z,100068
2017-08-05T09:12:00.941Z,100065
2017-08-05T09:13:00.988Z,100065
2017-08-05T09:14:01.976Z,100065
2017-08-05T09:15:02.018Z,100070
2017-08-05T09:16:02.799Z,100072
2017-08-05T09:17:01.260Z,100077
2017-08-05T09:18:01.191Z,100079
2017-08-05T09:19:01.216Z,100080
2017-08-05T09:20:01.361Z,100076
2017-08-05T09:21:02.957Z,100082
2017-08-05T09:22:01.411Z,100083
2017-08-05T09:23:01.310Z,100090
2017-08-05T09:24:02.481Z,100097
2017-08-05T09:25:01.625Z,100090
2017-08-05T09:26:01.640Z,100088
2017-08-05T09:27:01.585Z,100091
2017-08-05T09:28:01.616Z,100088
2017-08-05T09:29:02.668Z,100086
2017-08-05T09:30:03.558Z,100079
2017-08-05T09:31:03.470Z,100080
2017-08-05T09:32:01.844Z,100088
2017-08-05T09:33:03.000Z,100090
2017-08-05T09:34:01.945Z,100092
2017-08-05T09:35:03.070Z,100092
2017-08-05T09:36:02.109Z,100092
2017-08-05T09:37:03.070Z,100095
2017-08-05T09:38:02.267Z,100086
2017-08-05T09:39:02.387Z,100089
2017-08-05T09:40:02.269Z,100081
2017-08-05T09:41:02.472Z,100084
2017-08-05T09:42:04.163Z,100076
2017-08-05T09:43:02.404Z,100084
2017-08-05T09:44:04.199Z,100085
2017-08-05T09:45:04.206Z,100087
2017-08-05T09:46:02.594Z,100082
2017-08-05T09:47:02.636Z,100101
2017-08-05T09:48:02.609Z,100107
2017-08-05T09:49:02.730Z,100103
2017-08-05T09:50:02.786Z,100102
2017-08-05T09:51:04.438Z,100102
2017-08-05T09:52:04.638Z,100103
2017-08-05T09:53:04.627Z,100105
2017-08-05T09:54:04.610Z,100101
2017-08-05T09:55:03.038Z,100109
2017-08-05T09:56:04.758Z,100107
2017-08-05T09:57:03.249Z,100103
2017-08-05T09:58:03.275Z,100110
2017-08-05T09:59:04.180Z,100109
2017-08-05T10:00:03.328Z,100111
2017-08-05T10:01:05.109Z,100107
2017-08-05T10:02:04.545Z,100113
2017-08-05T10:03:05.437Z,100106
2017-08-05T10:04:05.284Z,100113
2017-08-05T10:05:05.336Z,100109
2017-08-05T10:06:04.763Z,100113
2017-08-05T10:07:04.736Z,100119
2017-08-05T10:08:06.177Z,100118
2017-08-05T10:09:04.058Z,100121
2017-08-05T10:10:04.864Z,100123
2017-08-05T10:11:05.634Z,100115
2017-08-05T10:12:05.012Z,100124
2017-08-05T10:13:04.132Z,100123
2017-08-05T10:14:05.922Z,100124
2017-08-05T10:15:04.170Z,100126
2017-08-05T10:16:04.249Z,100125
2017-08-05T10:17:04.236Z,100123
2017-08-05T10:18:04.236Z,100127
2017-08-05T10:19:04.362Z,100128
2017-08-05T10:20:04.472Z,100131
2017-08-05T10:21:04.486Z,100125
2017-08-05T10:22:05.217Z,100124
2017-08-05T10:23:05.504Z,100132
2017-08-05T10:24:04.480Z,100143
2017-08-05T10:25:04.582Z,100142
2017-08-05T10:26:04.658Z,100132
2017-08-05T10:27:05.685Z,100144
2017-08-05T10:28:05.741Z,100148
2017-08-05T10:29:05.906Z,100150
2017-08-05T10:30:06.045Z,100147
2017-08-05T10:31:06.661Z,100154
2017-08-05T10:32:06.565Z,100151
2017-08-05T10:33:05.014Z,100156
2017-08-05T10:34:05.904Z,100154
2017-08-05T10:35:04.992Z,100158
2017-08-05T10:36:06.803Z,100155
2017-08-05T10:37:05.076Z,100153
2017-08-05T10:38:06.751Z,100151
2017-08-05T10:39:05.100Z,100150
2017-08-05T10:40:05.226Z,100150
2017-08-05T10:41:06.946Z,100144
2017-08-05T10:42:05.241Z,100148
2017-08-05T10:43:07.009Z,100148
2017-08-05T10:44:06.434Z,100149
2017-08-05T10:45:05.490Z,100149
2017-08-05T10:46:06.376Z,100144
2017-08-05T10:47:06.506Z,100152
2017-08-05T10:48:05.481Z,100157
2017-08-05T10:49:07.355Z,100158
2017-08-05T10:50:06.557Z,100158
2017-08-05T10:51:05.627Z,100158
2017-08-05T10:52:07.240Z,100159
2017-08-05T10:53:05.848Z,100158
2017-08-05T10:54:06.029Z,100150
2017-08-05T10:55:06.931Z,100159
2017-08-05T10:56:06.913Z,100159
2017-08-05T10:57:06.981Z,100155
2017-08-05T10:58:07.178Z,100150
2017-08-05T10:59:07.230Z,100160
2017-08-05T11:00:06.548Z,100155
2017-08-05T11:01:07.984Z,100154
2017-08-05T11:02:07.184Z,100159
2017-08-05T11:03:06.235Z,100152
2017-08-05T11:04:06.276Z,100166
2017-08-05T11:05:06.304Z,100165
2017-08-05T11:06:08.420Z,100166
2017-08-05T11:07:06.494Z,100165
2017-08-05T11:08:06.417Z,100163
2017-08-05T11:09:07.442Z,100165
2017-08-05T11:10:08.215Z,100165
2017-08-05T11:11:08.385Z,100157
2017-08-05T11:12:07.044Z,100163
2017-08-05T11:13:08.456Z,100162
2017-08-05T11:14:07.866Z,100165
2017-08-05T11:15:07.852Z,100164
2017-08-05T11:16:07.060Z,100163
2017-08-05T11:17:07.032Z,100166
2017-08-05T11:18:07.452Z,100165
2017-08-05T11:19:08.242Z,100172
2017-08-05T11:20:08.998Z,100162
2017-08-05T11:21:07.367Z,100175
2017-08-05T11:22:07.383Z,100164
2017-08-05T11:23:08.328Z,100167
2017-08-05T11:24:10.227Z,100168
2017-08-05T11:25:09.918Z,100168
2017-08-05T11:26:10.713Z,100166
2017-08-05T11:27:07.567Z,100168
2017-08-05T11:28:07.620Z,100164
2017-08-05T11:29:07.688Z,100167
2017-08-05T11:30:07.965Z,100167
2017-08-05T11:31:09.423Z,100167
2017-08-05T11:32:08.732Z,100158
2017-08-05T11:33:09.499Z,100165
2017-08-05T11:34:07.981Z,100165
2017-08-05T11:35:09.699Z,100156
2017-08-05T11:36:08.378Z,100164
2017-08-05T11:37:09.136Z,100158
2017-08-05T11:38:08.258Z,100160
2017-08-05T11:39:08.156Z,100159
2017-08-05T11:40:08.263Z,100149
2017-08-05T11:41:08.172Z,100161
2017-08-05T11:42:10.227Z,100163
2017-08-05T11:43:08.304Z,100163
2017-08-05T11:44:08.321Z,100167
2017-08-05T11:45:08.241Z,100172
2017-08-05T11:46:10.017Z,100173
2017-08-05T11:47:09.919Z,100168
2017-08-05T11:48:09.544Z,100167
2017-08-05T11:49:08.498Z,100171
2017-08-05T11:50:10.225Z,100163
2017-08-05T11:51:10.202Z,100167
2017-08-05T11:52:08.555Z,100167
2017-08-05T11:53:08.635Z,100170
2017-08-05T11:54:10.080Z,100168
2017-08-05T11:55:09.691Z,100171
2017-08-05T11:56:08.873Z,100166
2017-08-05T11:57:08.981Z,100170
2017-08-05T11:58:08.902Z,100167
2017-08-05T11:59:10.724Z,100173
2017-08-05T12:00:09.390Z,100178
2017-08-05T12:01:09.173Z,100182
2017-08-05T12:02:09.189Z,100181
2017-08-05T12:03:10.266Z,100179
2017-08-05T12:04:11.010Z,100170
2017-08-05T12:05:09.292Z,100179
2017-08-05T12:06:09.812Z,100174
2017-08-05T12:07:09.573Z,100178
2017-08-05T12:08:09.478Z,100175
2017-08-05T12:09:09.584Z,100177
2017-08-05T12:10:11.400Z,100178
2017-08-05T12:11:10.714Z,100174
2017-08-05T12:12:11.655Z,100178
2017-08-05T12:13:11.567Z,100174
2017-08-05T12:14:09.820Z,100178
2017-08-05T12:15:11.695Z,100177
2017-08-05T12:16:10.094Z,100182
2017-08-05T12:17:10.181Z,100183
2017-08-05T12:18:11.455Z,100182
2017-08-05T12:19:10.367Z,100187
2017-08-05T12:20:10.430Z,100186
2017-08-05T12:21:10.376Z,100188
2017-08-05T12:22:11.503Z,100184
2017-08-05T12:23:11.463Z,100186
2017-08-05T12:24:10.809Z,100183
2017-08-05T12:25:10.636Z,100189
2017-08-05T12:26:10.653Z,100186
2017-08-05T12:27:10.664Z,100185
2017-08-05T12:28:10.564Z,100191
2017-08-05T12:29:11.553Z,100186